createdAt,value
2023-02-27T00:00:42.079Z,-1.12
2023-02-27T00:01:42.044Z,-1.09
2023-02-27T00:02:42.062Z,-1.09
2023-02-27T00:03:42.077Z,-1.06
2023-02-27T00:04:42.036Z,-1.07
2023-02-27T00:05:42.012Z,-1.06
2023-02-27T00:06:42.003Z,-1.03
2023-02-27T00:07:41.990Z,-1.00
2023-02-27T00:08:42.025Z,-1.00
2023-02-27T00:09:41.968Z,-0.97
2023-02-27T00:10:41.942Z,-0.97
2023-02-27T00:11:41.936Z,-0.97
2023-02-27T00:12:41.933Z,-0.95
2023-02-27T00:13:41.937Z,-0.95
2023-02-27T00:14:41.896Z,-0.95
2023-02-27T00:15:41.949Z,-0.97
2023-02-27T00:16:41.866Z,-0.97
2023-02-27T00:17:41.854Z,-0.95
2023-02-27T00:18:41.843Z,-0.99
2023-02-27T00:19:41.832Z,-0.97
2023-02-27T00:20:41.815Z,-0.97
2023-02-27T00:21:41.804Z,-0.99
2023-02-27T00:22:41.830Z,-0.99
2023-02-27T00:23:41.783Z,-1.02
2023-02-27T00:24:41.771Z,-1.02
2023-02-27T00:25:41.802Z,-1.03
2023-02-27T00:26:41.812Z,-1.03
2023-02-27T00:27:41.734Z,-1.02
2023-02-27T00:28:41.735Z,-1.03
2023-02-27T00:29:41.714Z,-1.05
2023-02-27T00:30:41.706Z,-1.07
2023-02-27T00:31:41.735Z,-1.10
2023-02-27T00:32:41.668Z,-1.13
2023-02-27T00:33:41.657Z,-1.13
2023-02-27T00:34:41.635Z,-1.13
2023-02-27T00:35:41.648Z,-1.15
2023-02-27T00:36:41.614Z,-1.17
2023-02-27T00:37:41.603Z,-1.18
2023-02-27T00:38:41.581Z,-1.21
2023-02-27T00:39:41.581Z,-1.21
2023-02-27T00:40:41.576Z,-1.24
2023-02-27T00:41:41.564Z,-1.24
2023-02-27T00:42:41.545Z,-1.27
2023-02-27T00:43:41.544Z,-1.27
2023-02-27T00:44:41.512Z,-1.27
2023-02-27T00:45:41.533Z,-1.27
2023-02-27T00:46:41.525Z,-1.25
2023-02-27T00:47:41.474Z,-1.25
2023-02-27T00:48:41.485Z,-1.24
2023-02-27T00:49:41.463Z,-1.21
2023-02-27T00:50:41.444Z,-1.18
2023-02-27T00:51:41.441Z,-1.18
2023-02-27T00:52:41.410Z,-1.20
2023-02-27T00:53:41.427Z,-1.21
2023-02-27T00:54:41.398Z,-1.21
2023-02-27T00:55:41.389Z,-1.23
2023-02-27T00:56:41.370Z,-1.24
2023-02-27T00:57:41.402Z,-1.24
2023-02-27T00:58:41.357Z,-1.23
2023-02-27T00:59:41.336Z,-1.21
2023-02-27T01:00:41.342Z,-1.18
2023-02-27T01:01:41.301Z,-1.20
2023-02-27T01:02:41.357Z,-1.20
2023-02-27T01:03:41.284Z,-1.21
2023-02-27T01:04:41.269Z,-1.24
2023-02-27T01:05:41.287Z,-1.24
2023-02-27T01:06:41.243Z,-1.28
2023-02-27T01:07:41.235Z,-1.31
2023-02-27T01:08:41.218Z,-1.35
2023-02-27T01:09:41.225Z,-1.36
2023-02-27T01:10:41.206Z,-1.36
2023-02-27T01:11:41.180Z,-1.38
2023-02-27T01:12:41.194Z,-1.39
2023-02-27T01:13:41.158Z,-1.39
2023-02-27T01:14:41.158Z,-1.38
2023-02-27T01:15:41.150Z,-1.41
2023-02-27T01:16:41.137Z,-1.39
2023-02-27T01:17:41.126Z,-1.39
2023-02-27T01:18:41.098Z,-1.39
2023-02-27T01:19:41.134Z,-1.41
2023-02-27T01:20:41.075Z,-1.42
2023-02-27T01:21:41.068Z,-1.43
2023-02-27T01:22:41.074Z,-1.42
2023-02-27T01:23:41.037Z,-1.42
2023-02-27T01:24:41.026Z,-1.43
2023-02-27T01:25:41.037Z,-1.43
2023-02-27T01:26:40.996Z,-1.45
2023-02-27T01:27:40.985Z,-1.46
2023-02-27T01:28:40.969Z,-1.48
2023-02-27T01:29:40.962Z,-1.48
2023-02-27T01:30:40.990Z,-1.48
2023-02-27T01:31:41.026Z,-1.49
2023-02-27T01:32:40.973Z,-1.49
2023-02-27T01:33:40.911Z,-1.51
2023-02-27T01:34:40.888Z,-1.53
2023-02-27T01:35:40.900Z,-1.54
2023-02-27T01:36:40.911Z,-1.57
2023-02-27T01:37:40.857Z,-1.57
2023-02-27T01:38:40.841Z,-1.56
2023-02-27T01:39:40.845Z,-1.59
2023-02-27T01:40:40.830Z,-1.59
2023-02-27T01:41:40.820Z,-1.62
2023-02-27T01:42:40.796Z,-1.62
2023-02-27T01:43:40.787Z,-1.63
2023-02-27T01:44:40.771Z,-1.62
2023-02-27T01:45:40.775Z,-1.64
2023-02-27T01:46:40.738Z,-1.67
2023-02-27T01:47:40.748Z,-1.67
2023-02-27T01:48:40.726Z,-1.72
2023-02-27T01:49:40.714Z,-1.75
2023-02-27T01:50:40.713Z,-1.77
2023-02-27T01:51:40.687Z,-1.78
2023-02-27T01:52:40.681Z,-1.80
2023-02-27T01:53:40.656Z,-1.84
2023-02-27T01:54:40.692Z,-1.87
2023-02-27T01:55:40.650Z,-1.87
2023-02-27T01:56:40.629Z,-1.90
2023-02-27T01:57:40.609Z,-1.90
2023-02-27T01:58:40.614Z,-1.90
2023-02-27T01:59:40.599Z,-1.92
2023-02-27T02:00:40.755Z,-1.95
2023-02-27T02:01:40.564Z,-1.96
2023-02-27T02:02:40.547Z,-1.99
2023-02-27T02:03:40.536Z,-2.02
2023-02-27T02:04:40.547Z,-2.06
2023-02-27T02:05:40.538Z,-2.11
2023-02-27T02:06:40.505Z,-2.13
2023-02-27T02:07:40.510Z,-2.10
2023-02-27T02:08:40.479Z,-2.14
2023-02-27T02:09:40.473Z,-2.16
2023-02-27T02:10:40.472Z,-2.16
2023-02-27T02:11:40.438Z,-2.17
2023-02-27T02:12:40.438Z,-2.20
2023-02-27T02:13:40.407Z,-2.26
2023-02-27T02:14:40.435Z,-2.32
2023-02-27T02:15:40.395Z,-2.35
2023-02-27T02:16:40.494Z,-2.36
2023-02-27T02:17:40.377Z,-2.42
2023-02-27T02:18:40.344Z,-2.43
2023-02-27T02:19:40.344Z,-2.45
2023-02-27T02:20:40.330Z,-2.48
2023-02-27T02:21:40.314Z,-2.51
2023-02-27T02:22:40.286Z,-2.53
2023-02-27T02:23:40.284Z,-2.56
2023-02-27T02:24:40.281Z,-2.53
2023-02-27T02:25:40.266Z,-2.51
2023-02-27T02:26:40.264Z,-2.50
2023-02-27T02:27:40.242Z,-2.53
2023-02-27T02:28:40.234Z,-2.53
2023-02-27T02:29:40.237Z,-2.56
2023-02-27T02:30:40.255Z,-2.60
2023-02-27T02:31:40.288Z,-2.61
2023-02-27T02:32:40.173Z,-2.66
2023-02-27T02:33:40.172Z,-2.68
2023-02-27T02:34:40.153Z,-2.72
2023-02-27T02:35:40.158Z,-2.75
2023-02-27T02:36:40.140Z,-2.78
2023-02-27T02:37:40.117Z,-2.81
2023-02-27T02:38:40.106Z,-2.85
2023-02-27T02:39:40.105Z,-2.86
2023-02-27T02:40:40.089Z,-2.89
2023-02-27T02:41:40.084Z,-2.89
2023-02-27T02:42:40.054Z,-2.90
2023-02-27T02:43:40.046Z,-2.92
2023-02-27T02:44:40.021Z,-2.94
2023-02-27T02:45:40.024Z,-2.97
2023-02-27T02:46:40.015Z,-3.00
2023-02-27T02:47:39.995Z,-3.02
2023-02-27T02:48:39.984Z,-3.04
2023-02-27T02:49:39.976Z,-3.05
2023-02-27T02:50:39.970Z,-3.07
2023-02-27T02:51:39.977Z,-3.10
2023-02-27T02:52:39.928Z,-3.10
2023-02-27T02:53:39.938Z,-3.11
2023-02-27T02:54:39.898Z,-3.13
2023-02-27T02:55:39.916Z,-3.13
2023-02-27T02:56:39.886Z,-3.14
2023-02-27T02:57:39.864Z,-3.14
2023-02-27T02:58:39.855Z,-3.14
2023-02-27T02:59:39.865Z,-3.15
2023-02-27T03:00:39.835Z,-3.15
2023-02-27T03:01:39.925Z,-3.18
2023-02-27T03:02:39.815Z,-3.20
2023-02-27T03:03:39.796Z,-3.17
2023-02-27T03:04:39.851Z,-3.20
2023-02-27T03:05:39.793Z,-3.20
2023-02-27T03:06:39.772Z,-3.22
2023-02-27T03:07:39.826Z,-3.23
2023-02-27T03:08:39.734Z,-3.23
2023-02-27T03:09:39.722Z,-3.25
2023-02-27T03:10:39.720Z,-3.26
2023-02-27T03:11:39.712Z,-3.26
2023-02-27T03:12:39.687Z,-3.28
2023-02-27T03:13:39.675Z,-3.28
2023-02-27T03:14:39.674Z,-3.26
2023-02-27T03:15:39.687Z,-3.25
2023-02-27T03:16:39.643Z,-3.26
2023-02-27T03:17:39.643Z,-3.26
2023-02-27T03:18:39.608Z,-3.28
2023-02-27T03:19:39.602Z,-3.29
2023-02-27T03:20:39.597Z,-3.29
2023-02-27T03:21:39.645Z,-3.28
2023-02-27T03:22:39.562Z,-3.28
2023-02-27T03:23:39.542Z,-3.29
2023-02-27T03:24:39.531Z,-3.28
2023-02-27T03:25:39.522Z,-3.28
2023-02-27T03:26:39.531Z,-3.28
2023-02-27T03:27:39.511Z,-3.26
2023-02-27T03:28:39.474Z,-3.26
2023-02-27T03:29:39.471Z,-3.26
2023-02-27T03:30:39.479Z,-3.28
2023-02-27T03:31:39.511Z,-3.29
2023-02-27T03:32:39.438Z,-3.29
2023-02-27T03:33:39.432Z,-3.29
2023-02-27T03:34:39.410Z,-3.29
2023-02-27T03:35:39.399Z,-3.29
2023-02-27T03:36:39.401Z,-3.29
2023-02-27T03:37:39.377Z,-3.29
2023-02-27T03:38:39.347Z,-3.29
2023-02-27T03:39:39.353Z,-3.31
2023-02-27T03:40:39.327Z,-3.32
2023-02-27T03:41:39.347Z,-3.35
2023-02-27T03:42:39.306Z,-3.35
2023-02-27T03:43:39.306Z,-3.36
2023-02-27T03:44:39.285Z,-3.38
2023-02-27T03:45:39.284Z,-3.38
2023-02-27T03:46:39.353Z,-3.39
2023-02-27T03:47:39.256Z,-3.39
2023-02-27T03:48:39.235Z,-3.36
2023-02-27T03:49:39.228Z,-3.36
2023-02-27T04:02:55.869Z,-3.36
2023-02-27T04:03:55.721Z,-3.39
2023-02-27T04:04:55.697Z,-3.39
2023-02-27T04:05:55.696Z,-3.39
2023-02-27T04:06:55.728Z,-3.38
2023-02-27T04:07:55.666Z,-3.39
2023-02-27T04:08:55.665Z,-3.41
2023-02-27T04:09:55.642Z,-3.44
2023-02-27T04:10:55.625Z,-3.46
2023-02-27T04:11:55.635Z,-3.46
2023-02-27T04:12:55.615Z,-3.44
2023-02-27T04:13:55.597Z,-3.43
2023-02-27T04:14:55.585Z,-3.41
2023-02-27T04:15:55.774Z,-3.39
2023-02-27T04:16:55.573Z,-3.36
2023-02-27T04:17:55.544Z,-3.33
2023-02-27T04:18:56.888Z,-3.31
2023-02-27T04:19:55.524Z,-3.31
2023-02-27T04:20:55.512Z,-3.31
2023-02-27T04:21:55.496Z,-3.31
2023-02-27T04:22:55.484Z,-3.29
2023-02-27T04:23:55.480Z,-3.26
2023-02-27T04:24:55.458Z,-3.23
2023-02-27T04:25:55.466Z,-3.18
2023-02-27T04:26:55.446Z,-3.17
2023-02-27T04:27:55.414Z,-3.17
2023-02-27T04:28:55.417Z,-3.14
2023-02-27T04:29:55.397Z,-3.13
2023-02-27T04:30:55.408Z,-3.11
2023-02-27T04:31:55.580Z,-3.11
2023-02-27T04:32:55.441Z,-3.10
2023-02-27T04:33:55.359Z,-3.07
2023-02-27T04:34:55.357Z,-3.05
2023-02-27T04:35:55.386Z,-3.00
2023-02-27T04:36:55.349Z,-2.97
2023-02-27T04:37:55.315Z,-2.86
2023-02-27T04:38:55.294Z,-2.82
2023-02-27T04:39:55.268Z,-2.79
2023-02-27T04:40:55.270Z,-2.78
2023-02-27T04:41:55.273Z,-2.76
2023-02-27T04:42:55.254Z,-2.74
2023-02-27T04:43:55.219Z,-2.74
2023-02-27T04:44:55.220Z,-2.72
2023-02-27T04:45:55.256Z,-2.72
2023-02-27T04:46:55.237Z,-2.72
2023-02-27T04:47:55.194Z,-2.71
2023-02-27T04:48:55.161Z,-2.69
2023-02-27T04:49:55.176Z,-2.68
2023-02-27T04:50:55.142Z,-2.68
2023-02-27T04:51:55.123Z,-2.69
2023-02-27T04:52:55.208Z,-2.69
2023-02-27T04:53:55.103Z,-2.68
2023-02-27T04:54:55.100Z,-2.69
2023-02-27T04:55:55.081Z,-2.71
2023-02-27T04:56:55.073Z,-2.68
2023-02-27T04:57:55.063Z,-2.68
2023-02-27T04:58:55.068Z,-2.71
2023-02-27T04:59:55.053Z,-2.71
2023-02-27T05:00:55.033Z,-2.72
2023-02-27T05:01:55.208Z,-2.75
2023-02-27T05:02:55.059Z,-2.76
2023-02-27T05:03:54.982Z,-2.81
2023-02-27T05:04:54.991Z,-2.85
2023-02-27T05:05:54.942Z,-2.86
2023-02-27T05:06:54.957Z,-2.89
2023-02-27T05:07:54.949Z,-2.92
2023-02-27T05:08:54.935Z,-2.90
2023-02-27T05:09:54.904Z,-2.90
2023-02-27T05:10:54.917Z,-2.92
2023-02-27T05:11:54.880Z,-2.92
2023-02-27T05:12:54.884Z,-2.89
2023-02-27T05:13:54.864Z,-2.89
2023-02-27T05:14:54.853Z,-2.87
2023-02-27T05:15:54.896Z,-2.87
2023-02-27T05:16:54.809Z,-2.87
2023-02-27T05:17:54.859Z,-2.85
2023-02-27T05:18:54.800Z,-2.85
2023-02-27T05:19:54.794Z,-2.85
2023-02-27T05:20:54.772Z,-2.86
2023-02-27T05:21:54.751Z,-2.86
2023-02-27T05:22:54.759Z,-2.86
2023-02-27T05:23:54.751Z,-2.89
2023-02-27T05:24:54.740Z,-2.92
2023-02-27T05:25:54.708Z,-2.97
2023-02-27T05:26:54.726Z,-3.05
2023-02-27T05:27:54.689Z,-3.13
2023-02-27T05:28:54.686Z,-3.20
2023-02-27T05:29:54.658Z,-3.29
2023-02-27T05:30:54.642Z,-3.39
2023-02-27T05:31:54.795Z,-3.46
2023-02-27T05:32:54.639Z,-3.50
2023-02-27T05:33:54.624Z,-3.60
2023-02-27T05:34:54.589Z,-3.68
2023-02-27T05:35:54.612Z,-3.75
2023-02-27T05:36:54.587Z,-3.78
2023-02-27T05:37:54.568Z,-3.84
2023-02-27T05:38:54.557Z,-3.90
2023-02-27T05:39:54.535Z,-3.96
2023-02-27T05:40:54.517Z,-4.01
2023-02-27T05:41:54.516Z,-4.05
2023-02-27T05:42:54.497Z,-4.08
2023-02-27T05:43:54.485Z,-4.11
2023-02-27T05:44:54.477Z,-4.15
2023-02-27T05:45:54.496Z,-4.20
2023-02-27T05:46:54.455Z,-4.20
2023-02-27T05:47:54.434Z,-4.23
2023-02-27T05:48:54.408Z,-4.28
2023-02-27T05:49:54.394Z,-4.29
2023-02-27T05:50:54.404Z,-4.30
2023-02-27T05:51:54.956Z,-4.33
2023-02-27T05:52:54.383Z,-4.36
2023-02-27T05:53:54.344Z,-4.36
2023-02-27T05:54:54.342Z,-4.37
2023-02-27T05:55:54.341Z,-4.40
2023-02-27T05:56:54.338Z,-4.43
2023-02-27T05:57:54.318Z,-4.44
2023-02-27T05:58:54.293Z,-4.46
2023-02-27T05:59:54.298Z,-4.48
2023-02-27T06:00:54.283Z,-4.48
2023-02-27T06:01:54.332Z,-4.48
2023-02-27T06:02:54.267Z,-4.50
2023-02-27T06:03:54.232Z,-4.50
2023-02-27T06:04:54.226Z,-4.48
2023-02-27T06:05:54.225Z,-4.50
2023-02-27T06:06:54.204Z,-4.48
2023-02-27T06:07:54.209Z,-4.50
2023-02-27T06:08:54.168Z,-4.47
2023-02-27T06:09:54.199Z,-4.46
2023-02-27T06:11:01.645Z,-4.46
2023-02-27T06:11:54.141Z,-4.43
2023-02-27T06:12:54.113Z,-4.41
2023-02-27T06:13:54.104Z,-4.40
2023-02-27T06:14:54.088Z,-4.37
2023-02-27T06:15:54.111Z,-4.33
2023-02-27T06:16:54.168Z,-4.32
2023-02-27T06:17:54.092Z,-4.29
2023-02-27T06:18:54.053Z,-4.28
2023-02-27T06:19:54.048Z,-4.28
2023-02-27T06:20:54.017Z,-4.29
2023-02-27T06:21:54.034Z,-4.28
2023-02-27T06:22:54.035Z,-4.28
2023-02-27T06:23:53.984Z,-4.28
2023-02-27T06:24:53.976Z,-4.30
2023-02-27T06:25:53.975Z,-4.30
2023-02-27T06:26:53.997Z,-4.30
2023-02-27T06:27:53.935Z,-4.30
2023-02-27T06:28:53.924Z,-4.32
2023-02-27T06:29:53.925Z,-4.33
2023-02-27T06:30:53.944Z,-4.32
2023-02-27T06:31:53.890Z,-4.32
2023-02-27T06:32:53.865Z,-4.32
2023-02-27T06:33:53.894Z,-4.29
2023-02-27T06:34:53.831Z,-4.25
2023-02-27T06:35:53.863Z,-4.19
2023-02-27T06:36:53.820Z,-4.15
2023-02-27T06:37:53.791Z,-4.11
2023-02-27T06:38:53.796Z,-4.11
2023-02-27T06:39:53.791Z,-4.11
2023-02-27T06:40:53.769Z,-4.12
2023-02-27T06:41:53.749Z,-4.12
2023-02-27T06:42:53.721Z,-4.11
2023-02-27T06:43:53.742Z,-4.08
2023-02-27T06:44:53.782Z,-4.05
2023-02-27T06:45:53.793Z,-4.01
2023-02-27T06:46:53.692Z,-3.96
2023-02-27T06:47:53.671Z,-3.91
2023-02-27T06:48:53.657Z,-3.90
2023-02-27T06:49:53.647Z,-3.90
2023-02-27T06:50:53.673Z,-3.86
2023-02-27T06:51:53.629Z,-3.80
2023-02-27T06:52:53.603Z,-3.75
2023-02-27T06:53:53.617Z,-3.70
2023-02-27T06:54:53.573Z,-3.68
2023-02-27T06:55:53.581Z,-3.64
2023-02-27T06:56:53.555Z,-3.57
2023-02-27T06:57:53.565Z,-3.51
2023-02-27T06:58:53.557Z,-3.50
2023-02-27T06:59:53.523Z,-3.46
2023-02-27T07:00:53.526Z,-3.44
2023-02-27T07:01:53.486Z,-3.41
2023-02-27T07:02:53.480Z,-3.35
2023-02-27T07:03:53.490Z,-3.29
2023-02-27T07:04:53.492Z,-3.26
2023-02-27T07:05:53.439Z,-3.20
2023-02-27T07:07:32.447Z,-3.15
2023-02-27T07:07:54.406Z,-3.08
2023-02-27T07:09:01.572Z,-3.02
2023-02-27T07:09:54.408Z,-2.96
2023-02-27T07:10:53.377Z,-2.90
2023-02-27T07:11:53.380Z,-2.85
2023-02-27T07:12:53.336Z,-2.79
2023-02-27T07:13:53.334Z,-2.72
2023-02-27T07:14:53.328Z,-2.69
2023-02-27T07:15:53.331Z,-2.61
2023-02-27T07:16:53.300Z,-2.56
2023-02-27T07:17:53.288Z,-2.50
2023-02-27T07:18:53.257Z,-2.45
2023-02-27T07:19:53.266Z,-2.39
2023-02-27T07:20:53.265Z,-2.36
2023-02-27T07:21:53.247Z,-2.32
2023-02-27T07:22:53.225Z,-2.26
2023-02-27T07:23:53.219Z,-2.21
2023-02-27T07:24:53.215Z,-2.18
2023-02-27T07:25:53.182Z,-2.16
2023-02-27T07:26:53.190Z,-2.10
2023-02-27T07:27:53.179Z,-2.03
2023-02-27T07:28:53.165Z,-1.99
2023-02-27T07:29:53.164Z,-1.98
2023-02-27T07:30:53.157Z,-1.93
2023-02-27T07:31:53.164Z,-1.88
2023-02-27T07:32:53.106Z,-1.85
2023-02-27T07:33:53.094Z,-1.82
2023-02-27T07:34:53.080Z,-1.78
2023-02-27T07:35:53.161Z,-1.72
2023-02-27T07:36:53.047Z,-1.67
2023-02-27T07:37:53.061Z,-1.66
2023-02-27T07:38:53.037Z,-1.63
2023-02-27T07:39:53.026Z,-1.60
2023-02-27T07:40:53.004Z,-1.56
2023-02-27T07:41:53.007Z,-1.53
2023-02-27T07:42:53.374Z,-1.46
2023-02-27T07:43:52.981Z,-1.42
2023-02-27T07:44:52.951Z,-1.39
2023-02-27T07:45:52.963Z,-1.35
2023-02-27T07:46:53.030Z,-1.31
2023-02-27T07:47:52.954Z,-1.28
2023-02-27T07:48:52.954Z,-1.27
2023-02-27T07:49:52.934Z,-1.25
2023-02-27T07:50:52.892Z,-1.21
2023-02-27T07:51:52.871Z,-1.18
2023-02-27T07:52:52.850Z,-1.15
2023-02-27T07:53:52.843Z,-1.12
2023-02-27T07:54:52.852Z,-1.12
2023-02-27T07:55:52.834Z,-1.07
2023-02-27T07:56:52.800Z,-1.05
2023-02-27T07:57:52.793Z,-1.05
2023-02-27T07:58:52.783Z,-1.02
2023-02-27T07:59:52.786Z,-0.97
2023-02-27T08:00:52.760Z,-0.91
2023-02-27T08:01:52.740Z,-0.86
2023-02-27T08:02:52.754Z,-0.80
2023-02-27T08:03:52.740Z,-0.73
2023-02-27T08:04:52.773Z,-0.70
2023-02-27T08:05:52.731Z,-0.70
2023-02-27T08:06:52.678Z,-0.66
2023-02-27T08:07:52.697Z,-0.62
2023-02-27T08:08:52.651Z,-0.59
2023-02-27T08:09:52.641Z,-0.57
2023-02-27T08:10:52.631Z,-0.54
2023-02-27T08:11:52.631Z,-0.51
2023-02-27T08:12:52.613Z,-0.48
2023-02-27T08:14:01.628Z,-0.44
2023-02-27T08:14:53.595Z,-0.37
2023-02-27T08:15:52.626Z,-0.34
2023-02-27T08:16:52.577Z,-0.30
2023-02-27T08:17:52.535Z,-0.24
2023-02-27T08:18:52.524Z,-0.19
2023-02-27T08:19:52.630Z,-0.15
2023-02-27T08:20:52.527Z,-0.11
2023-02-27T08:21:52.493Z,-0.06
2023-02-27T08:22:52.470Z,-0.01
2023-02-27T08:23:52.485Z,0.03
2023-02-27T08:24:52.454Z,0.05
2023-02-27T08:25:52.461Z,0.05
2023-02-27T08:26:52.425Z,0.10
2023-02-27T08:27:52.414Z,0.12
2023-02-27T08:28:52.414Z,0.13
2023-02-27T08:29:52.396Z,0.16
2023-02-27T08:30:52.408Z,0.20
2023-02-27T08:31:52.482Z,0.21
2023-02-27T08:32:52.342Z,0.25
2023-02-27T08:34:01.103Z,0.31
2023-02-27T08:34:53.337Z,0.36
2023-02-27T08:35:52.320Z,0.41
2023-02-27T08:36:52.308Z,0.43
2023-02-27T08:37:52.288Z,0.48
2023-02-27T08:38:52.280Z,0.53
2023-02-27T08:39:52.270Z,0.58
2023-02-27T08:40:52.259Z,0.64
2023-02-27T08:41:52.283Z,0.67
2023-02-27T08:42:52.229Z,0.70
2023-02-27T08:43:52.226Z,0.75
2023-02-27T08:44:52.208Z,0.80
2023-02-27T08:45:52.258Z,0.83
2023-02-27T08:46:52.195Z,0.88
2023-02-27T08:47:52.178Z,0.90
2023-02-27T08:48:52.156Z,0.94
2023-02-27T08:49:52.140Z,0.97
2023-02-27T08:50:52.130Z,0.97
2023-02-27T08:51:52.134Z,1.03
2023-02-27T08:52:52.101Z,1.07
2023-02-27T08:53:52.100Z,1.12
2023-02-27T08:54:52.072Z,1.16
2023-02-27T08:55:52.057Z,1.21
2023-02-27T08:56:52.090Z,1.25
2023-02-27T08:57:52.045Z,1.32
2023-02-27T08:58:52.015Z,1.36
2023-02-27T08:59:51.994Z,1.40
2023-02-27T09:00:52.006Z,1.46
2023-02-27T09:01:51.984Z,1.54
2023-02-27T09:02:52.025Z,1.61
2023-02-27T09:03:51.970Z,1.65
2023-02-27T09:04:51.977Z,1.75
2023-02-27T09:05:51.927Z,1.82
2023-02-27T09:06:51.926Z,1.90
2023-02-27T09:07:51.908Z,2.02
2023-02-27T09:08:51.892Z,2.09
2023-02-27T09:09:51.876Z,2.12
2023-02-27T09:10:51.886Z,2.22
2023-02-27T09:11:51.865Z,2.34
2023-02-27T09:12:51.894Z,2.48
2023-02-27T09:13:51.866Z,2.66
2023-02-27T09:14:51.815Z,2.87
2023-02-27T09:15:51.806Z,3.05
2023-02-27T09:16:51.938Z,3.23
2023-02-27T09:17:51.792Z,3.36
2023-02-27T09:18:51.765Z,3.53
2023-02-27T09:19:51.789Z,3.83
2023-02-27T09:20:51.759Z,4.28
2023-02-27T09:21:51.720Z,5.05
2023-02-27T09:22:51.799Z,6.13
2023-02-27T09:23:51.742Z,7.35
2023-02-27T09:24:51.699Z,8.50
2023-02-27T09:25:51.679Z,9.15
2023-02-27T09:26:52.087Z,10.36
2023-02-27T09:27:51.642Z,11.39
2023-02-27T09:28:51.659Z,12.23
2023-02-27T09:29:51.609Z,12.34
2023-02-27T09:30:51.608Z,12.23
2023-02-27T09:31:51.650Z,12.16
2023-02-27T09:32:51.640Z,11.16
2023-02-27T09:33:51.575Z,9.85
2023-02-27T09:34:51.556Z,8.88
2023-02-27T09:35:51.656Z,8.96
2023-02-27T09:36:51.533Z,9.25
2023-02-27T09:37:51.507Z,8.37
2023-02-27T09:38:51.502Z,9.15
2023-02-27T09:39:51.503Z,9.25
2023-02-27T09:40:51.488Z,9.39
2023-02-27T09:41:51.466Z,9.68
2023-02-27T09:42:51.481Z,10.56
2023-02-27T09:43:51.449Z,11.07
2023-02-27T09:44:51.408Z,10.60
2023-02-27T09:45:51.494Z,10.76
2023-02-27T09:46:51.389Z,10.53
2023-02-27T10:03:28.450Z,3.20
2023-02-27T10:04:28.316Z,3.42
2023-02-27T10:05:28.311Z,3.34
2023-02-27T10:06:28.781Z,3.23
2023-02-27T10:07:28.283Z,3.25
2023-02-27T10:08:28.320Z,3.36
2023-02-27T10:09:28.272Z,3.47
2023-02-27T10:10:28.362Z,3.75
2023-02-27T10:11:28.244Z,4.00
2023-02-27T10:12:28.218Z,4.46
2023-02-27T10:13:28.211Z,4.73
2023-02-27T10:14:28.198Z,5.07
2023-02-27T10:15:28.180Z,5.17
2023-02-27T10:16:28.598Z,5.45
2023-02-27T10:17:28.152Z,5.35
2023-02-27T10:18:30.754Z,4.94
2023-02-27T10:19:28.120Z,4.62
2023-02-27T10:20:28.127Z,4.34
2023-02-27T10:21:30.617Z,4.18
2023-02-27T10:22:28.206Z,3.94
2023-02-27T10:23:28.080Z,3.86
2023-02-27T10:24:28.091Z,3.75
2023-02-27T10:25:31.988Z,3.60
2023-02-27T10:26:28.075Z,3.54
2023-02-27T10:27:28.052Z,3.47
2023-02-27T10:28:28.034Z,3.31
2023-02-27T10:29:28.017Z,3.21
2023-02-27T10:30:30.501Z,3.09
2023-02-27T10:31:28.362Z,2.98
2023-02-27T10:32:27.952Z,2.87
2023-02-27T10:33:28.465Z,2.76
2023-02-27T10:34:27.949Z,2.63
2023-02-27T10:35:27.976Z,2.61
2023-02-27T10:36:34.013Z,2.58
2023-02-27T10:37:28.935Z,2.58
2023-02-27T10:38:27.897Z,2.56
2023-02-27T10:39:27.882Z,2.59
2023-02-27T10:40:27.903Z,2.64
2023-02-27T10:41:28.374Z,2.66
2023-02-27T10:42:27.857Z,2.67
2023-02-27T10:43:27.825Z,2.71
2023-02-27T10:44:27.824Z,2.70
2023-02-27T10:45:27.799Z,2.73
2023-02-27T10:46:28.217Z,2.70
2023-02-27T10:47:27.789Z,2.69
2023-02-27T10:48:27.765Z,2.67
2023-02-27T10:49:27.754Z,2.71
2023-02-27T10:50:27.725Z,2.74
2023-02-27T10:51:28.009Z,2.79
2023-02-27T10:52:27.728Z,2.81
2023-02-27T10:53:27.702Z,2.84
2023-02-27T10:54:27.720Z,2.84
2023-02-27T10:55:27.655Z,2.76
2023-02-27T10:56:27.887Z,2.77
2023-02-27T10:57:27.672Z,2.77
2023-02-27T10:58:28.536Z,2.82
2023-02-27T10:59:27.614Z,3.16
2023-02-27T11:00:27.622Z,3.28
2023-02-27T11:01:28.019Z,3.40
2023-02-27T11:02:27.609Z,3.57
2023-02-27T11:03:27.596Z,3.71
2023-02-27T11:04:27.579Z,3.79
2023-02-27T11:05:27.576Z,3.83
2023-02-27T11:06:27.570Z,3.88
2023-02-27T11:07:27.533Z,3.94
2023-02-27T11:08:27.545Z,3.98
2023-02-27T11:09:27.528Z,4.04
2023-02-27T11:10:27.507Z,4.08
2023-02-27T11:11:27.819Z,4.12
2023-02-27T11:12:27.478Z,4.12
2023-02-27T11:13:27.462Z,4.08
2023-02-27T11:14:27.459Z,5.67
2023-02-27T11:15:27.406Z,6.04
2023-02-27T11:16:27.402Z,6.07
2023-02-27T11:17:27.424Z,8.00
2023-02-27T11:18:27.387Z,10.03
2023-02-27T11:19:27.398Z,11.47
2023-02-27T11:20:27.349Z,12.29
2023-02-27T11:21:27.830Z,13.32
2023-02-27T11:22:27.353Z,14.46
2023-02-27T11:23:27.330Z,15.43
2023-02-27T11:24:27.333Z,15.17
2023-02-27T11:25:27.289Z,14.87
2023-02-27T11:26:27.298Z,15.76
2023-02-27T11:27:27.271Z,16.49
2023-02-27T11:28:27.274Z,17.17
2023-02-27T11:29:27.262Z,17.48
2023-02-27T11:30:27.249Z,17.91
2023-02-27T11:31:27.567Z,18.12
2023-02-27T11:32:27.234Z,18.40
2023-02-27T11:33:27.235Z,18.82
2023-02-27T11:34:27.204Z,18.86
2023-02-27T11:35:27.166Z,18.86
2023-02-27T11:36:27.154Z,18.95
2023-02-27T11:37:27.148Z,18.99
2023-02-27T11:38:27.154Z,18.84
2023-02-27T11:39:27.132Z,17.14
2023-02-27T11:40:27.136Z,14.72
2023-02-27T11:41:27.347Z,13.40
2023-02-27T11:42:27.087Z,12.20
2023-02-27T11:43:27.079Z,11.17
2023-02-27T11:44:49.855Z,10.17
2023-02-27T11:46:13.870Z,9.32
2023-02-27T11:46:47.649Z,8.79
2023-02-27T11:47:28.086Z,8.22
2023-02-27T11:48:27.028Z,7.67
2023-02-27T11:49:27.002Z,7.23
2023-02-27T11:50:27.029Z,6.81
2023-02-27T11:51:27.308Z,6.43
2023-02-27T11:52:26.940Z,6.22
2023-02-27T11:53:26.957Z,6.11
2023-02-27T11:54:26.932Z,5.92
2023-02-27T11:55:26.950Z,5.71
2023-02-27T11:56:26.951Z,5.38
2023-02-27T11:57:26.973Z,5.13
2023-02-27T11:58:26.960Z,4.91
2023-02-27T11:59:26.852Z,4.73
2023-02-27T12:00:26.870Z,4.59
2023-02-27T12:01:27.319Z,4.51
2023-02-27T12:02:26.860Z,4.51
2023-02-27T12:03:26.857Z,4.64
2023-02-27T12:04:26.822Z,4.75
2023-02-27T12:05:26.808Z,5.32
2023-02-27T12:06:26.793Z,5.37
2023-02-27T12:07:26.802Z,5.43
2023-02-27T12:08:26.774Z,5.63
2023-02-27T12:09:26.796Z,6.33
2023-02-27T12:10:26.741Z,6.76
2023-02-27T12:11:26.786Z,8.81
2023-02-27T12:12:26.731Z,10.68
2023-02-27T12:13:26.697Z,12.20
2023-02-27T12:14:26.814Z,13.22
2023-02-27T12:15:26.696Z,13.91
2023-02-27T12:16:27.109Z,13.00
2023-02-27T12:17:26.623Z,11.99
2023-02-27T12:18:26.624Z,10.95
2023-02-27T12:19:26.616Z,10.14
2023-02-27T12:20:26.615Z,9.25
2023-02-27T12:21:26.623Z,8.69
2023-02-27T12:22:26.620Z,8.17
2023-02-27T12:23:26.577Z,7.63
2023-02-27T12:24:26.551Z,7.40
2023-02-27T12:25:26.560Z,7.15
2023-02-27T12:26:26.874Z,6.84
2023-02-27T12:27:26.515Z,6.54
2023-02-27T12:28:26.521Z,6.35
2023-02-27T12:29:26.479Z,6.26
2023-02-27T12:30:26.452Z,6.11
2023-02-27T12:31:26.908Z,6.00
2023-02-27T12:32:26.509Z,6.01
2023-02-27T12:33:26.474Z,6.04
2023-02-27T12:34:26.457Z,6.10
2023-02-27T12:35:26.522Z,6.16
2023-02-27T12:36:26.438Z,6.26
2023-02-27T12:37:26.402Z,6.33
2023-02-27T12:38:26.421Z,7.01
2023-02-27T12:39:26.343Z,8.17
2023-02-27T12:40:26.343Z,8.11
2023-02-27T12:41:26.722Z,7.85
2023-02-27T12:42:26.342Z,7.47
2023-02-27T12:43:26.321Z,7.22
2023-02-27T12:44:26.273Z,7.04
2023-02-27T12:45:26.417Z,7.29
2023-02-27T12:46:26.301Z,8.44
2023-02-27T12:47:26.273Z,9.88
2023-02-27T12:48:26.280Z,11.83
2023-02-27T12:49:26.253Z,13.37
2023-02-27T12:50:26.204Z,13.83
2023-02-27T12:51:26.558Z,12.63
2023-02-27T12:52:26.230Z,11.49
2023-02-27T12:53:26.231Z,12.16
2023-02-27T12:54:26.245Z,13.74
2023-02-27T12:55:26.131Z,15.30
2023-02-27T12:56:26.159Z,16.35
2023-02-27T12:57:26.126Z,17.13
2023-02-27T12:58:26.123Z,17.71
2023-02-27T12:59:26.144Z,17.88
2023-02-27T13:00:26.083Z,17.69
2023-02-27T13:01:26.640Z,18.03
2023-02-27T13:02:26.043Z,18.72
2023-02-27T13:03:26.069Z,18.84
2023-02-27T13:04:26.077Z,18.97
2023-02-27T13:05:26.007Z,19.21
2023-02-27T13:06:26.025Z,19.28
2023-02-27T13:07:25.997Z,19.08
2023-02-27T13:08:26.005Z,18.76
2023-02-27T13:09:25.986Z,17.87
2023-02-27T13:10:25.949Z,16.15
2023-02-27T13:11:26.415Z,16.00
2023-02-27T13:12:25.934Z,16.20
2023-02-27T13:13:25.939Z,16.30
2023-02-27T13:14:25.972Z,16.11
2023-02-27T13:15:25.880Z,16.25
2023-02-27T13:16:25.939Z,16.34
2023-02-27T13:17:25.861Z,15.88
2023-02-27T13:18:25.874Z,16.12
2023-02-27T13:19:25.890Z,16.03
2023-02-27T13:20:25.900Z,15.54
2023-02-27T13:21:26.200Z,13.98
2023-02-27T13:22:25.826Z,12.57
2023-02-27T13:23:25.849Z,11.65
2023-02-27T13:24:25.839Z,11.74
2023-02-27T13:25:25.774Z,12.42
2023-02-27T13:26:25.796Z,13.41
2023-02-27T13:27:25.760Z,14.12